Time;durP1;ratioP1;P1;durP2;ratioP2;P2;SDS_P1;SDS_P2;PMS_P1;PMS_P2;Temp;Humidity;BMP_temperature;BMP_pressure;BME280_temperature;BME280_humidity;BME280_pressure;Samples;Min_cycle;Max_cycle;Signal;HPM_P1;HPM_P2
2023/09/12 00:00:05;;;;;;;;;16.20;15.00;;;;;21.94;36.60;99186.50;5087086;28;9399;-66
2023/09/12 00:02:59;;;;;;;;;13.80;13.60;;;;;21.74;37.38;99185.28;5088206;28;8863;-66
2023/09/12 00:05:28;;;;;;;;;16.20;16.20;;;;;21.83;37.01;99187.28;5086061;28;8867;-67
2023/09/12 00:07:58;;;;;;;;;17.80;15.00;;;;;21.84;37.23;99180.09;5087893;28;8868;-66
2023/09/12 00:10:27;;;;;;;;;15.00;14.40;;;;;21.80;37.27;99183.97;5090114;28;8859;-68
2023/09/12 00:12:56;;;;;;;;;14.40;14.40;;;;;21.77;37.55;99179.72;5088212;28;8828;-66
2023/09/12 00:15:25;;;;;;;;;15.60;14.80;;;;;21.76;37.27;99183.34;5068843;28;8859;-66
2023/09/12 00:17:54;;;;;;;;;13.60;13.60;;;;;21.87;37.37;99181.72;5102278;28;8863;-66
2023/09/12 00:20:23;;;;;;;;;18.00;17.00;;;;;21.85;37.03;99187.16;5087643;28;8902;-67
2023/09/12 00:22:53;;;;;;;;;14.60;14.20;;;;;21.98;37.03;99187.13;5069457;28;8859;-66
2023/09/12 00:25:23;;;;;;;;;15.00;14.00;;;;;21.92;36.74;99185.75;5085949;28;8840;-65
2023/09/12 00:27:52;;;;;;;;;18.20;18.20;;;;;21.77;37.29;99189.56;5094190;28;8841;-67
2023/09/12 00:30:20;;;;;;;;;15.80;15.80;;;;;21.84;37.01;99182.78;5108271;28;8845;-65
2023/09/12 00:32:49;;;;;;;;;13.40;13.40;;;;;21.83;37.10;99178.41;5072510;28;8868;-65
2023/09/12 00:35:18;;;;;;;;;15.40;14.40;;;;;21.80;36.75;99178.63;5093007;28;9566;-65
2023/09/12 00:37:47;;;;;;;;;10.60;10.20;;;;;21.77;36.55;99174.34;5087993;28;8879;-67
2023/09/12 00:40:16;;;;;;;;;14.40;13.60;;;;;21.75;36.33;99170.06;5085320;28;8854;-65
2023/09/12 00:42:46;;;;;;;;;16.40;16.00;;;;;21.72;37.06;99181.84;5068383;28;8838;-65
2023/09/12 00:45:15;;;;;;;;;11.40;10.60;;;;;21.68;36.14;99177.72;5050809;28;8803;-66
2023/09/12 00:47:45;;;;;;;;;12.00;12.00;;;;;21.71;36.05;99176.63;5052344;28;8878;-66
2023/09/12 00:50:17;;;;;;;;;18.20;15.40;;;;;21.38;37.35;99170.91;5068135;28;8862;-65
2023/09/12 00:52:46;;;;;;;;;13.20;12.00;;;;;21.35;36.30;99176.50;5085875;28;8887;-65
2023/09/12 00:55:15;;;;;;;;;14.60;14.20;;;;;21.17;36.79;99177.81;5039671;28;8915;-66
2023/09/12 00:57:44;;;;;;;;;16.40;14.40;;;;;21.38;36.65;99173.56;5072232;28;8930;-66
2023/09/12 01:00:16;;;;;;;;;14.60;14.60;;;;;21.30;36.21;99175.13;5088906;28;8838;-68
2023/09/12 01:02:49;;;;;;;;;14.40;13.20;;;;;21.45;36.84;99172.19;5088034;28;8888;-68
2023/09/12 01:05:19;;;;;;;;;14.20;12.80;;;;;21.37;36.90;99176.34;5072041;28;8842;-67
2023/09/12 01:07:47;;;;;;;;;14.40;13.60;;;;;21.45;36.77;99174.00;5088930;28;8857;-67
2023/09/12 01:10:16;;;;;;;;;15.80;15.80;;;;;21.44;36.70;99177.63;5071915;28;8849;-66
2023/09/12 01:12:45;;;;;;;;;14.80;13.80;;;;;21.45;36.46;99176.69;5089086;28;8987;-66
2023/09/12 01:15:16;;;;;;;;;16.60;14.40;;;;;21.45;36.50;99184.69;5071879;28;8938;-65
2023/09/12 01:17:46;;;;;;;;;15.20;14.00;;;;;21.30;36.39;99181.31;5084971;28;8837;-67
2023/09/12 01:20:20;;;;;;;;;13.20;13.20;;;;;21.40;36.42;99181.50;5127118;27;8863;-66
2023/09/12 01:23:01;;;;;;;;;15.80;15.80;;;;;21.37;36.98;99179.91;5108064;28;8861;-64
2023/09/12 01:26:02;;;;;;;;;16.60;14.80;;;;;21.56;36.37;99182.09;5090059;28;8870;-66
2023/09/12 01:28:35;;;;;;;;;17.80;14.60;;;;;21.50;36.38;99187.88;5089632;28;8851;-66
2023/09/12 01:31:06;;;;;;;;;18.40;15.20;;;;;21.50;36.59;99185.19;5089635;28;9030;-66
2023/09/12 01:33:35;;;;;;;;;19.75;18.25;;;;;21.43;36.75;99187.47;5055530;28;8843;-66
2023/09/12 01:36:05;;;;;;;;;19.00;16.40;;;;;21.48;36.45;99184.47;5107137;27;8942;-69
2023/09/12 01:38:33;;;;;;;;;13.80;13.80;;;;;21.49;36.21;99186.19;5075615;28;8984;-66
2023/09/12 01:41:03;;;;;;;;;16.60;14.00;;;;;21.50;36.69;99184.34;5091617;28;8890;-68
2023/09/12 01:43:39;;;;;;;;;12.60;12.00;;;;;21.54;36.66;99191.19;5088433;28;8856;-66
2023/09/12 01:46:09;;;;;;;;;14.60;14.40;;;;;21.52;36.22;99190.44;5091273;28;8836;-65
2023/09/12 01:48:38;;;;;;;;;15.80;13.20;;;;;21.48;35.99;99183.63;5089549;28;8960;-66
2023/09/12 01:51:08;;;;;;;;;9.40;9.20;;;;;21.48;36.41;99181.78;5089919;28;8843;-65
2023/09/12 01:53:37;;;;;;;;;15.00;13.80;;;;;21.47;36.25;99181.91;5090603;28;8864;-66
2023/09/12 01:56:07;;;;;;;;;14.80;14.40;;;;;21.41;36.22;99186.75;5089369;28;8851;-70
2023/09/12 01:58:37;;;;;;;;;14.60;14.20;;;;;21.37;36.61;99193.28;5098626;28;8924;-72
2023/09/12 02:01:06;;;;;;;;;14.60;14.60;;;;;21.32;36.68;99190.06;5089573;28;8819;-71
2023/09/12 02:03:35;;;;;;;;;14.00;12.60;;;;;21.30;36.43;99188.47;5090641;28;8852;-68
2023/09/12 02:06:04;;;;;;;;;15.00;14.00;;;;;21.22;36.30;99181.84;5106089;28;8851;-69
2023/09/12 02:08:33;;;;;;;;;13.40;12.40;;;;;21.19;36.52;99181.22;5094488;27;8872;-67
2023/09/12 02:11:02;;;;;;;;;13.00;13.00;;;;;21.17;36.71;99184.00;5058795;28;8872;-67
2023/09/12 02:13:31;;;;;;;;;13.40;13.40;;;;;21.15;36.54;99182.41;5094654;27;8834;-69
2023/09/12 02:16:02;;;;;;;;;15.20;14.60;;;;;21.14;36.60;99180.69;5077882;27;8867;-67
2023/09/12 02:18:32;;;;;;;;;13.40;13.40;;;;;21.04;37.04;99183.16;5093657;28;9669;-70
2023/09/12 02:21:01;;;;;;;;;12.40;12.40;;;;;20.99;37.00;99182.63;5066716;28;8908;-69
2023/09/12 02:23:29;;;;;;;;;16.00;16.00;;;;;20.94;36.79;99177.59;5051668;28;8846;-68
2023/09/12 02:25:58;;;;;;;;;13.00;11.00;;;;;20.76;36.63;99173.50;5087502;28;8864;-69
2023/09/12 02:28:27;;;;;;;;;12.80;11.80;;;;;20.79;36.92;99170.63;5087607;28;8869;-68
2023/09/12 02:30:57;;;;;;;;;12.60;12.60;;;;;20.76;35.91;99173.50;5087341;28;9603;-69
2023/09/12 02:33:27;;;;;;;;;14.00;13.60;;;;;20.62;37.28;99171.81;5055362;28;8977;-68
2023/09/12 02:35:57;;;;;;;;;12.40;12.40;;;;;20.54;36.87;99168.78;5050039;28;8880;-69
2023/09/12 02:38:25;;;;;;;;;11.20;11.20;;;;;20.60;36.53;99166.56;5033862;28;8857;-67
2023/09/12 02:40:55;;;;;;;;;15.00;11.60;;;;;20.57;36.71;99168.59;5071792;28;8838;-69
2023/09/12 02:43:25;;;;;;;;;12.60;12.60;;;;;20.50;36.29;99173.50;5070112;28;8837;-70
2023/09/12 02:45:54;;;;;;;;;15.00;14.60;;;;;20.55;36.29;99173.16;5093055;28;8843;-70
2023/09/12 02:48:23;;;;;;;;;14.00;14.00;;;;;20.47;36.68;99165.69;5086883;28;8885;-67
2023/09/12 02:50:53;;;;;;;;;13.20;13.20;;;;;20.52;36.21;99166.25;5069977;28;8855;-68
2023/09/12 02:53:22;;;;;;;;;10.40;10.40;;;;;20.47;36.03;99160.34;5089748;28;8851;-69
2023/09/12 02:55:54;;;;;;;;;13.20;13.20;;;;;20.52;36.22;99163.56;5107321;28;8831;-69
2023/09/12 02:58:22;;;;;;;;;12.80;11.80;;;;;20.54;36.12;99158.97;5105995;27;8868;-68
2023/09/12 03:00:54;;;;;;;;;11.60;10.00;;;;;20.49;35.58;99164.63;5090084;28;8835;-67
2023/09/12 03:03:23;;;;;;;;;11.60;11.40;;;;;20.49;35.50;99161.94;5124342;27;8851;-70
2023/09/12 03:06:00;;;;;;;;;13.00;12.00;;;;;20.57;35.10;99164.09;5107180;28;8874;-70
2023/09/12 03:08:28;;;;;;;;;12.00;12.00;;;;;20.52;35.34;99162.69;5123981;27;8874;-70
2023/09/12 03:10:58;;;;;;;;;11.00;11.00;;;;;20.52;35.12;99160.03;5107050;28;8843;-68
2023/09/12 03:13:30;;;;;;;;;10.20;10.20;;;;;20.55;34.98;99160.66;5089964;28;8932;-71
2023/09/12 03:15:59;;;;;;;;;11.40;11.40;;;;;20.47;34.79;99168.34;5111860;27;8855;-69
2023/09/12 03:18:28;;;;;;;;;11.00;11.00;;;;;20.51;34.83;99169.00;5091089;28;9594;-72
2023/09/12 03:20:59;;;;;;;;;16.00;15.20;;;;;20.52;35.12;99162.69;5093111;28;8870;-69
2023/09/12 03:23:28;;;;;;;;;15.40;15.40;;;;;20.50;34.74;99162.81;5050135;28;8858;-69
2023/09/12 03:26:01;;;;;;;;;10.60;10.40;;;;;20.56;35.15;99166.84;5068790;28;8954;-69
2023/09/12 03:28:30;;;;;;;;;10.20;10.20;;;;;20.51;35.19;99166.34;5033676;28;8858;-70
2023/09/12 03:31:11;;;;;;;;;11.80;11.20;;;;;20.57;34.97;99161.41;5061598;28;8861;-69
2023/09/12 03:33:41;;;;;;;;;11.80;11.40;;;;;20.53;34.61;99170.59;5048538;28;8873;-68
2023/09/12 03:36:13;;;;;;;;;12.00;10.00;;;;;20.56;34.65;99166.84;5063547;28;8891;-68
2023/09/12 03:38:43;;;;;;;;;12.60;11.00;;;;;20.59;34.94;99161.31;5080639;28;8957;-69
2023/09/12 03:41:13;;;;;;;;;14.00;11.20;;;;;20.55;35.03;99165.16;5066353;28;8858;-69
2023/09/12 03:43:42;;;;;;;;;11.00;11.00;;;;;20.45;35.17;99160.44;5067326;28;8846;-69
2023/09/12 03:46:11;;;;;;;;;12.00;11.40;;;;;20.46;35.51;99159.50;5066992;28;8960;-67
2023/09/12 03:48:39;;;;;;;;;13.20;13.20;;;;;20.47;35.51;99155.84;5031751;28;8874;-71
2023/09/12 03:51:09;;;;;;;;;11.60;11.60;;;;;20.49;35.49;99177.13;5065798;28;8854;-68
2023/09/12 03:53:39;;;;;;;;;15.60;14.00;;;;;20.49;35.29;99166.44;5068747;28;8933;-69
2023/09/12 03:56:12;;;;;;;;;11.80;11.00;;;;;20.50;35.18;99170.84;5069057;28;8871;-67
2023/09/12 03:58:41;;;;;;;;;13.20;12.60;;;;;20.52;35.03;99176.03;5068682;28;10900;-69
2023/09/12 04:01:11;;;;;;;;;13.00;13.00;;;;;20.48;34.99;99168.25;5068292;28;9663;-74
2023/09/12 04:03:40;;;;;;;;;13.80;12.80;;;;;20.46;35.37;99174.66;5067798;28;9006;-75
2023/09/12 04:06:09;;;;;;;;;11.20;11.20;;;;;20.45;35.13;99172.94;5085867;28;8972;-75
2023/09/12 04:08:40;;;;;;;;;14.80;13.20;;;;;20.46;35.50;99174.66;5064931;28;9006;-75
2023/09/12 04:11:10;;;;;;;;;12.20;11.60;;;;;20.45;35.21;99170.28;5065463;28;8862;-76
2023/09/12 04:13:39;;;;;;;;;17.40;16.80;;;;;20.44;35.24;99177.44;5065194;28;9657;-76
2023/09/12 04:16:08;;;;;;;;;13.00;12.40;;;;;20.42;35.16;99171.31;5065422;28;9596;-76
2023/09/12 04:18:37;;;;;;;;;13.20;12.00;;;;;20.42;35.26;99178.50;5048068;28;9070;-75
2023/09/12 04:21:06;;;;;;;;;14.60;14.00;;;;;20.42;35.23;99178.50;5065359;28;8860;-77
2023/09/12 04:23:35;;;;;;;;;14.40;11.60;;;;;20.45;35.25;99179.13;5065491;28;8886;-75
2023/09/12 04:26:06;;;;;;;;;50.75;42.75;;;;;20.43;34.94;99181.06;5065527;28;8863;-77
2023/09/12 04:28:34;;;;;;;;;22.00;22.00;;;;;20.46;34.84;99186.19;5014249;28;8838;-76
2023/09/12 04:31:04;;;;;;;;;12.60;12.00;;;;;20.46;34.76;99180.88;5042138;28;8859;-74
2023/09/12 04:33:32;;;;;;;;;14.20;14.00;;;;;20.48;35.08;99184.28;5012927;28;8867;-76
2023/09/12 04:36:02;;;;;;;;;14.00;12.80;;;;;20.48;35.20;99173.59;4997225;28;8863;-75
2023/09/12 04:38:32;;;;;;;;;13.00;11.20;;;;;20.46;35.40;99179.97;5025568;28;9039;-76
2023/09/12 04:41:04;;;;;;;;;14.40;12.80;;;;;20.47;35.59;99181.72;5055188;28;8886;-74
2023/09/12 04:43:35;;;;;;;;;14.00;14.00;;;;;20.46;35.44;99185.31;5088746;28;8863;-77
2023/09/12 04:46:04;;;;;;;;;11.00;10.20;;;;;20.51;35.54;99183.19;5107534;28;8885;-74
2023/09/12 04:48:33;;;;;;;;;13.80;13.00;;;;;20.52;35.21;99189.41;5086609;28;8858;-75
2023/09/12 04:51:02;;;;;;;;;13.60;13.60;;;;;20.52;35.13;99190.28;5070194;28;8874;-75
2023/09/12 04:53:34;;;;;;;;;12.00;12.00;;;;;20.54;35.31;99198.16;5085481;28;8852;-75
2023/09/12 04:56:06;;;;;;;;;15.00;14.00;;;;;20.57;35.30;99195.28;5064211;28;8849;-77
2023/09/12 04:58:36;;;;;;;;;12.40;12.40;;;;;20.58;35.14;99200.53;5066780;28;8899;-76
2023/09/12 05:01:05;;;;;;;;;14.20;14.20;;;;;20.61;34.91;99194.09;5075840;28;8846;-76
2023/09/12 05:03:34;;;;;;;;;14.00;13.40;;;;;20.65;35.41;99192.94;5072465;28;8863;-74
2023/09/12 05:06:04;;;;;;;;;14.20;13.60;;;;;20.67;35.22;99196.34;5098742;28;8846;-72
2023/09/12 05:08:32;;;;;;;;;11.60;11.60;;;;;20.72;35.34;99201.41;5074079;28;8858;-74
2023/09/12 05:11:02;;;;;;;;;13.00;11.40;;;;;20.76;35.49;99197.53;5067604;28;8869;-75
2023/09/12 05:13:31;;;;;;;;;14.00;14.00;;;;;20.76;34.92;99208.22;5030680;28;8851;-75
2023/09/12 05:16:02;;;;;;;;;13.40;13.40;;;;;20.83;34.95;99196.16;5049197;28;8945;-73
2023/09/12 05:18:31;;;;;;;;;14.80;12.40;;;;;20.90;35.08;99204.59;5049814;28;9587;-77
2023/09/12 05:21:00;;;;;;;;;10.80;10.80;;;;;20.99;34.75;99209.34;5064371;28;9616;-74
2023/09/12 05:23:29;;;;;;;;;12.40;11.80;;;;;21.06;34.98;99210.63;5090046;28;9491;-75
2023/09/12 05:25:58;;;;;;;;;14.00;14.00;;;;;21.16;34.68;99201.00;5099263;28;8847;-74
2023/09/12 05:28:27;;;;;;;;;18.80;17.00;;;;;21.25;35.04;99208.34;5064804;28;8868;-74
2023/09/12 05:30:56;;;;;;;;;17.80;16.20;;;;;21.35;35.33;99208.56;5094227;28;8862;-74
2023/09/12 05:33:26;;;;;;;;;14.40;12.40;;;;;21.40;34.82;99201.06;5106650;28;8843;-75
2023/09/12 05:35:56;;;;;;;;;13.40;13.40;;;;;21.52;34.93;99203.81;5074585;28;8885;-73
2023/09/12 05:38:25;;;;;;;;;16.00;15.60;;;;;21.41;34.45;99202.78;5091306;28;8859;-77
2023/09/12 05:40:54;;;;;;;;;15.00;14.00;;;;;21.47;34.80;99204.16;5131088;27;8872;-69
2023/09/12 05:43:23;;;;;;;;;13.20;13.20;;;;;21.54;34.65;99205.44;5070887;28;8848;-72
2023/09/12 05:45:53;;;;;;;;;12.60;11.80;;;;;21.63;34.38;99206.59;5089034;28;8843;-70
2023/09/12 05:48:22;;;;;;;;;15.20;14.40;;;;;21.59;34.07;99197.06;5088053;28;8893;-74
2023/09/12 05:50:53;;;;;;;;;13.00;11.40;;;;;21.77;33.70;99198.44;5102096;28;8826;-76
2023/09/12 05:53:21;;;;;;;;;15.40;11.40;;;;;21.89;33.45;99198.50;5074367;28;8949;-74
2023/09/12 05:55:50;;;;;;;;;13.20;12.80;;;;;21.99;33.15;99203.06;5090821;28;8860;-73
2023/09/12 05:58:20;;;;;;;;;14.00;12.80;;;;;22.05;32.81;99201.72;5099646;27;8882;-73
2023/09/12 06:00:49;;;;;;;;;11.00;11.00;;;;;22.14;32.77;99193.00;5037586;28;8875;-75
2023/09/12 06:03:18;;;;;;;;;13.00;13.00;;;;;22.19;32.58;99200.72;5104930;28;8909;-75
2023/09/12 06:05:47;;;;;;;;;12.00;11.80;;;;;22.26;32.57;99204.69;5102423;28;8860;-76
2023/09/12 06:08:17;;;;;;;;;12.80;12.00;;;;;22.28;32.46;99201.88;5090541;28;8961;-74
2023/09/12 06:10:48;;;;;;;;;13.20;11.20;;;;;22.41;32.58;99202.63;5106864;28;8837;-74
2023/09/12 06:13:17;;;;;;;;;12.20;12.00;;;;;22.40;32.63;99200.94;5109733;28;8977;-75
2023/09/12 06:15:46;;;;;;;;;11.80;11.80;;;;;22.49;32.13;99207.44;5090794;28;8871;-75
2023/09/12 06:18:15;;;;;;;;;13.40;11.60;;;;;22.49;32.73;99213.66;5074039;28;8877;-72
2023/09/12 06:20:44;;;;;;;;;11.60;11.60;;;;;22.48;32.86;99217.28;5088108;28;8921;-69
2023/09/12 06:23:12;;;;;;;;;15.80;13.80;;;;;22.59;32.92;99213.78;5075543;28;8855;-71
2023/09/12 06:25:43;;;;;;;;;16.75;14.50;;;;;22.61;32.96;99211.84;5104016;28;8845;-73
2023/09/12 06:28:12;;;;;;;;;16.80;15.80;;;;;22.70;32.78;99213.81;5109389;28;8888;-74
2023/09/12 06:30:41;;;;;;;;;18.60;17.40;;;;;22.72;32.52;99211.03;5109539;28;8902;-74
2023/09/12 06:33:10;;;;;;;;;14.40;14.20;;;;;22.75;32.54;99210.78;5095222;28;8864;-70
2023/09/12 06:35:39;;;;;;;;;19.40;15.40;;;;;22.64;32.91;99216.09;5109799;28;8964;-70
2023/09/12 06:38:10;;;;;;;;;13.40;12.80;;;;;22.68;32.81;99215.75;5094785;28;8849;-73
2023/09/12 06:40:39;;;;;;;;;11.60;10.80;;;;;22.63;32.77;99214.41;5100229;28;8979;-72
2023/09/12 06:43:09;;;;;;;;;16.40;15.20;;;;;22.73;32.93;99231.47;5100362;28;8980;-73
2023/09/12 06:45:38;;;;;;;;;13.20;12.80;;;;;22.78;32.90;99223.94;5102567;28;8864;-74
2023/09/12 06:48:07;;;;;;;;;16.40;12.80;;;;;22.80;32.75;99227.34;5100005;28;8888;-73
2023/09/12 06:50:37;;;;;;;;;14.00;13.00;;;;;22.83;32.95;99226.25;5092355;28;9710;-72
2023/09/12 06:53:07;;;;;;;;;13.20;12.60;;;;;22.87;33.42;99231.28;5098077;28;9614;-73
2023/09/12 06:55:36;;;;;;;;;12.80;11.80;;;;;22.94;32.99;99229.00;5109500;28;8977;-73
2023/09/12 06:58:04;;;;;;;;;6.60;6.60;;;;;22.91;32.92;99232.78;5109021;28;8970;-75
2023/09/12 07:00:35;;;;;;;;;12.00;12.00;;;;;22.91;32.97;99235.44;5108842;28;8947;-76
2023/09/12 07:03:04;;;;;;;;;14.20;14.20;;;;;22.93;33.23;99233.50;5106092;28;8959;-73
2023/09/12 07:05:38;;;;;;;;;16.20;14.20;;;;;23.14;32.80;99232.81;5104739;28;8833;-74
2023/09/12 07:08:08;;;;;;;;;15.20;14.40;;;;;23.25;32.72;99237.34;5108247;28;9054;-74
2023/09/12 07:10:37;;;;;;;;;13.00;11.80;;;;;23.25;32.75;99251.59;5081706;28;8898;-77
2023/09/12 07:13:06;;;;;;;;;14.00;13.00;;;;;23.28;32.74;99243.31;5103337;28;8852;-75
2023/09/12 07:15:38;;;;;;;;;16.20;15.80;;;;;23.39;32.63;99237.94;5098496;28;9061;-74
2023/09/12 07:18:07;;;;;;;;;14.40;12.60;;;;;23.44;32.68;99242.09;5104453;28;8957;-75
2023/09/12 07:20:36;;;;;;;;;17.20;13.80;;;;;23.41;32.39;99242.31;5071943;28;8950;-74
2023/09/12 07:23:05;;;;;;;;;13.80;13.80;;;;;23.48;32.47;99247.06;5108801;28;8868;-75
2023/09/12 07:25:38;;;;;;;;;14.80;13.80;;;;;23.35;32.91;99244.50;5108389;28;8959;-75
2023/09/12 07:28:07;;;;;;;;;13.80;13.20;;;;;23.54;32.75;99241.25;5088808;28;8869;-78
2023/09/12 07:30:38;;;;;;;;;15.40;13.60;;;;;23.73;32.41;99240.63;5108149;28;8825;-77
2023/09/12 07:33:07;;;;;;;;;15.20;12.80;;;;;23.77;32.72;99246.59;5090388;28;8853;-74
2023/09/12 07:35:36;;;;;;;;;12.80;11.40;;;;;23.84;32.73;99245.13;5094209;28;8968;-76
2023/09/12 07:38:05;;;;;;;;;14.60;13.40;;;;;23.93;32.56;99241.69;5096093;28;8978;-75
2023/09/12 07:40:34;;;;;;;;;12.80;12.20;;;;;23.99;32.54;99243.00;5094427;28;8829;-76
2023/09/12 07:43:03;;;;;;;;;16.00;15.60;;;;;24.06;32.33;99238.84;5098758;28;8969;-75
2023/09/12 07:45:36;;;;;;;;;15.00;13.60;;;;;23.94;32.83;99240.72;5106818;28;8884;-77
2023/09/12 07:48:11;;;;;;;;;12.60;11.80;;;;;24.11;32.54;99242.03;5108196;28;9618;-75
2023/09/12 07:50:40;;;;;;;;;15.20;14.40;;;;;24.05;32.93;99237.13;5099248;28;9966;-74
2023/09/12 07:53:09;;;;;;;;;13.60;13.00;;;;;24.18;32.99;99245.06;5096343;28;8841;-76
2023/09/12 07:55:45;;;;;;;;;15.20;14.40;;;;;24.17;32.23;99240.69;5106997;28;8876;-74
2023/09/12 07:58:15;;;;;;;;;13.20;12.40;;;;;24.21;32.56;99235.91;5100567;28;9664;-76
2023/09/12 08:00:44;;;;;;;;;11.80;10.80;;;;;24.29;32.66;99241.50;5107646;28;8852;-76
2023/09/12 08:03:15;;;;;;;;;12.60;11.60;;;;;24.41;32.25;99242.31;5103851;28;8899;-75
2023/09/12 08:05:46;;;;;;;;;14.20;13.80;;;;;24.47;31.87;99249.84;5107446;28;8852;-76
2023/09/12 08:08:14;;;;;;;;;14.80;14.20;;;;;24.44;31.75;99244.75;5102885;28;8964;-76
2023/09/12 08:10:43;;;;;;;;;14.00;12.80;;;;;24.50;31.40;99236.16;5096207;28;8852;-77
2023/09/12 08:13:12;;;;;;;;;10.40;10.40;;;;;24.58;31.83;99244.41;5107465;28;8845;-76
2023/09/12 08:15:41;;;;;;;;;13.00;12.00;;;;;24.59;31.70;99235.38;5106375;28;9602;-76
2023/09/12 08:18:11;;;;;;;;;11.80;11.80;;;;;24.48;31.53;99248.88;5087832;28;8911;-77
2023/09/12 08:20:41;;;;;;;;;11.60;11.60;;;;;24.62;31.14;99239.63;5091852;28;8860;-76
2023/09/12 08:23:10;;;;;;;;;12.60;12.60;;;;;24.76;30.74;99246.56;5098429;28;8934;-75
2023/09/12 08:25:41;;;;;;;;;14.00;14.00;;;;;24.79;30.94;99243.59;5106730;28;9587;-76
2023/09/12 08:28:09;;;;;;;;;16.40;16.00;;;;;24.89;30.79;99240.00;5107719;28;8872;-76
2023/09/12 08:30:38;;;;;;;;;18.40;16.80;;;;;24.89;30.98;99248.06;5091829;27;8829;-73
2023/09/12 08:33:07;;;;;;;;;17.00;16.50;;;;;25.00;30.82;99243.59;5126066;27;8873;-74
2023/09/12 08:35:36;;;;;;;;;14.40;13.60;;;;;25.04;30.32;99243.22;5108578;27;8876;-77
2023/09/12 08:38:06;;;;;;;;;14.20;14.00;;;;;25.13;29.91;99239.72;5118383;27;8861;-75
2023/09/12 08:40:36;;;;;;;;;13.60;12.80;;;;;25.18;30.48;99246.53;5125671;27;8845;-77
2023/09/12 08:43:05;;;;;;;;;11.40;11.40;;;;;25.23;29.94;99244.31;5087881;27;8849;-75
2023/09/12 08:45:34;;;;;;;;;14.20;12.80;;;;;25.26;30.08;99241.34;5107667;27;8880;-74
2023/09/12 08:48:06;;;;;;;;;14.00;12.80;;;;;25.36;29.74;99249.47;5108191;27;8873;-77
2023/09/12 08:50:35;;;;;;;;;11.00;11.00;;;;;25.38;29.61;99245.69;5125676;27;8850;-75
2023/09/12 08:53:04;;;;;;;;;12.80;12.40;;;;;25.34;29.96;99240.69;5125030;27;8853;-77
2023/09/12 08:55:38;;;;;;;;;13.40;13.40;;;;;25.52;29.76;99248.00;5125615;27;8817;-74
2023/09/12 08:58:07;;;;;;;;;15.40;12.60;;;;;25.62;28.91;99245.31;5125956;27;8980;-76
2023/09/12 09:00:37;;;;;;;;;11.40;11.40;;;;;25.71;29.09;99241.81;5126902;27;8821;-74
2023/09/12 09:03:07;;;;;;;;;11.60;10.80;;;;;25.66;28.38;99240.53;5095195;28;8879;-75
2023/09/12 09:05:38;;;;;;;;;11.60;10.80;;;;;25.71;28.70;99238.28;5103689;28;8855;-76
2023/09/12 09:08:09;;;;;;;;;12.20;11.60;;;;;25.82;28.70;99238.16;5098394;28;8861;-76
2023/09/12 09:10:40;;;;;;;;;12.00;11.80;;;;;25.95;28.96;99235.25;5093499;28;8974;-76
2023/09/12 09:13:19;;;;;;;;;10.00;10.00;;;;;25.99;28.41;99239.38;5097724;28;9009;-75
2023/09/12 09:15:48;;;;;;;;;10.60;10.60;;;;;26.09;28.79;99229.44;5095692;28;8867;-76
2023/09/12 09:18:17;;;;;;;;;11.40;10.40;;;;;26.00;28.82;99230.31;5099255;27;8861;-75
2023/09/12 09:20:49;;;;;;;;;10.20;10.00;;;;;26.08;28.08;99230.47;5092282;28;8888;-76
2023/09/12 09:23:18;;;;;;;;;12.40;11.00;;;;;26.16;27.35;99227.06;5111008;28;9019;-76
2023/09/12 09:25:53;;;;;;;;;11.60;11.40;;;;;26.29;27.62;99218.72;5111137;28;8872;-74
2023/09/12 09:28:23;;;;;;;;;12.80;12.80;;;;;26.30;27.81;99223.09;5110420;28;8884;-75
2023/09/12 09:30:54;;;;;;;;;13.20;13.20;;;;;26.36;27.93;99218.97;5096088;28;8920;-74
2023/09/12 09:33:24;;;;;;;;;8.60;8.60;;;;;26.38;27.38;99223.25;5111180;28;8921;-76
2023/09/12 09:36:04;;;;;;;;;11.40;11.40;;;;;26.49;27.30;99214.19;5062212;28;8841;-73
2023/09/12 09:38:34;;;;;;;;;9.60;9.20;;;;;26.47;27.02;99217.03;5110339;28;8968;-75
2023/09/12 09:41:07;;;;;;;;;12.20;10.60;;;;;26.51;27.30;99220.28;5110359;28;8833;-74
2023/09/12 09:43:36;;;;;;;;;12.80;11.40;;;;;26.56;26.82;99218.00;5110561;28;8868;-74
2023/09/12 09:46:05;;;;;;;;;13.40;12.20;;;;;26.62;27.08;99228.22;5111367;28;9004;-75
2023/09/12 09:48:34;;;;;;;;;11.60;11.60;;;;;26.76;27.09;99221.53;5110627;28;8864;-76
2023/09/12 09:51:04;;;;;;;;;9.20;9.20;;;;;26.88;26.65;99224.91;5097462;28;8860;-74
2023/09/12 09:53:34;;;;;;;;;11.80;10.80;;;;;26.95;26.66;99225.16;5110787;28;8915;-77
2023/09/12 09:56:11;;;;;;;;;10.40;9.60;;;;;26.93;26.17;99227.16;5075189;28;8865;-75
2023/09/12 09:58:48;;;;;;;;;8.80;8.40;;;;;26.88;26.25;99224.91;5110388;28;8881;-72
2023/09/12 10:01:20;;;;;;;;;10.80;9.60;;;;;26.80;26.51;99225.66;5110053;28;8853;-74
2023/09/12 10:03:50;;;;;;;;;11.20;9.80;;;;;26.97;26.94;99220.50;5070926;28;8903;-73
2023/09/12 10:06:21;;;;;;;;;9.60;9.00;;;;;27.16;26.75;99214.22;5096746;28;8845;-71
2023/09/12 10:08:53;;;;;;;;;12.20;12.20;;;;;27.28;26.23;99225.69;5073701;28;8871;-73
2023/09/12 10:11:25;;;;;;;;;10.80;10.00;;;;;27.38;26.52;99226.47;5103625;28;8857;-71
2023/09/12 10:13:55;;;;;;;;;10.50;9.25;;;;;27.41;26.58;99215.41;5073986;28;8964;-71
2023/09/12 10:16:26;;;;;;;;;9.60;9.60;;;;;27.51;26.68;99213.50;5110365;27;8918;-71
2023/09/12 10:19:00;;;;;;;;;12.60;11.00;;;;;27.65;26.30;99209.50;5110203;28;8861;-71
2023/09/12 10:21:32;;;;;;;;;11.20;10.20;;;;;27.71;26.11;99206.19;5109672;28;8949;-72
2023/09/12 10:24:04;;;;;;;;;10.40;10.40;;;;;27.83;25.52;99206.81;5091114;28;8857;-73
2023/09/12 10:26:36;;;;;;;;;9.40;9.00;;;;;27.80;26.06;99199.88;5072317;28;8936;-74
2023/09/12 10:29:05;;;;;;;;;13.60;12.20;;;;;27.96;25.84;99201.03;5109752;28;10045;-73
2023/09/12 10:31:35;;;;;;;;;7.20;6.80;;;;;28.10;25.89;99205.94;5104103;28;8847;-71
2023/09/12 10:34:08;;;;;;;;;10.00;10.00;;;;;28.10;25.56;99205.94;5069509;27;8917;-73
2023/09/12 10:36:40;;;;;;;;;15.20;13.20;;;;;28.32;25.01;99199.22;5101356;28;8891;-74
2023/09/12 10:39:11;;;;;;;;;12.60;9.60;;;;;28.46;24.63;99205.94;5108380;28;8872;-74
2023/09/12 10:41:42;;;;;;;;;12.40;12.40;;;;;28.63;24.49;99192.53;5057492;28;8861;-72
2023/09/12 10:44:13;;;;;;;;;10.80;10.00;;;;;28.69;25.08;99198.22;5104600;28;8886;-75
2023/09/12 10:46:44;;;;;;;;;13.40;13.40;;;;;28.79;24.65;99190.81;5101196;28;8873;-70
2023/09/12 10:49:14;;;;;;;;;11.80;11.00;;;;;28.90;24.28;99199.69;5104117;28;8869;-71
2023/09/12 10:51:45;;;;;;;;;12.00;12.00;;;;;29.09;23.75;99196.75;5100631;27;8892;-75
2023/09/12 10:54:16;;;;;;;;;13.60;13.40;;;;;29.17;23.87;99195.97;5121428;27;9580;-75
2023/09/12 10:56:50;;;;;;;;;12.60;12.60;;;;;29.29;23.61;99200.13;5088974;28;8940;-73
2023/09/12 10:59:21;;;;;;;;;13.25;12.75;;;;;29.40;23.32;99198.97;5108688;28;9053;-72
2023/09/12 11:01:50;;;;;;;;;12.00;9.60;;;;;29.44;23.58;99194.91;5109687;28;8872;-74
2023/09/12 11:04:34;;;;;;;;;10.80;9.20;;;;;29.78;22.88;99194.03;5096921;28;8859;-74
2023/09/12 11:07:33;;;;;;;;;10.40;10.40;;;;;29.94;21.87;99196.81;5088717;28;8868;-72
2023/09/12 11:10:24;;;;;;;;;8.60;8.20;;;;;30.18;21.74;99191.59;5102497;28;8893;-72
2023/09/12 11:12:56;;;;;;;;;8.00;8.00;;;;;30.17;20.94;99188.03;5085897;28;8870;-71
2023/09/12 11:15:27;;;;;;;;;10.60;10.60;;;;;30.31;21.46;99186.53;5068796;28;8863;-72
2023/09/12 11:18:05;;;;;;;;;12.00;11.50;;;;;30.53;21.62;99183.13;5091078;28;8955;-72
2023/09/12 11:20:54;;;;;;;;;13.00;13.00;;;;;30.75;21.82;99186.22;5085539;28;8938;-73
2023/09/12 11:23:23;;;;;;;;;10.40;10.40;;;;;30.78;21.19;99188.56;5085545;28;8850;-72
2023/09/12 11:26:05;;;;;;;;;10.00;10.00;;;;;31.02;20.50;99184.97;5086075;28;8979;-72
2023/09/12 11:28:36;;;;;;;;;13.00;13.00;;;;;31.13;20.66;99182.88;5085703;28;8993;-70
2023/09/12 11:31:05;;;;;;;;;13.00;12.25;;;;;31.30;20.96;99173.72;5086584;28;8893;-72
2023/09/12 11:33:34;;;;;;;;;11.80;10.20;;;;;31.40;19.83;99187.06;5085713;28;8854;-74
2023/09/12 11:36:08;;;;;;;;;9.00;9.00;;;;;31.56;19.15;99184.28;5060565;28;8982;-70
2023/09/12 11:38:39;;;;;;;;;9.80;8.00;;;;;31.78;18.83;99179.94;5104340;28;8927;-74
2023/09/12 11:41:08;;;;;;;;;10.50;9.25;;;;;31.94;18.60;99172.69;5065126;28;8960;-70